Time;durP1;ratioP1;P1;durP2;ratioP2;P2;SDS_P1;SDS_P2;PMS_P1;PMS_P2;Temp;Humidity;BMP_temperature;BMP_pressure;BME280_temperature;BME280_humidity;BME280_pressure;Samples;Min_cycle;Max_cycle;Signal;HPM_P1;HPM_P2
2022/08/12 00:44:40;;;;;;;7.80;7.10;;;19.10;99.90;;;;;;5021450;28;20041;-60
2022/08/12 00:47:08;;;;;;;8.60;6.47;;;19.10;99.90;;;;;;5020120;28;20099;-60
2022/08/12 00:49:34;;;;;;;8.57;6.30;;;19.00;99.90;;;;;;5019627;28;20065;-60
2022/08/12 00:52:05;;;;;;;11.02;6.72;;;19.00;99.90;;;;;;5021482;28;20045;-60
2022/08/12 00:54:53;;;;;;;9.45;7.40;;;19.00;99.90;;;;;;5022314;28;20110;-60
2022/08/12 00:57:21;;;;;;;8.02;6.70;;;19.00;99.90;;;;;;5020667;28;20041;-60
2022/08/12 00:59:59;;;;;;;9.07;6.97;;;19.00;99.90;;;;;;5019834;28;20064;-59
2022/08/12 01:02:30;;;;;;;11.18;6.78;;;19.00;99.90;;;;;;5020227;28;20057;-61
2022/08/12 01:13:32;;;;;;;7.85;6.22;;;18.80;99.90;;;;;;5021267;28;20053;-61
2022/08/12 01:16:00;;;;;;;6.85;5.68;;;18.80;99.90;;;;;;5018584;28;20679;-60
2022/08/12 01:18:29;;;;;;;6.30;5.70;;;18.80;99.90;;;;;;5020346;28;20175;-60
2022/08/12 01:21:10;;;;;;;5.60;5.10;;;18.80;99.90;;;;;;5020463;28;20108;-60
2022/08/12 01:23:58;;;;;;;8.05;5.05;;;18.80;99.90;;;;;;5021470;28;20049;-59
2022/08/12 01:26:25;;;;;;;6.30;5.43;;;18.70;99.90;;;;;;5022215;28;20037;-60
2022/08/12 01:28:55;;;;;;;7.70;5.30;;;18.70;99.90;;;;;;5019847;28;20045;-61
2022/08/12 01:31:21;;;;;;;13.68;6.72;;;18.70;99.90;;;;;;5019269;28;20403;-61
2022/08/12 01:34:05;;;;;;;7.25;5.22;;;18.70;99.90;;;;;;5019197;28;20033;-60
2022/08/12 01:36:53;;;;;;;7.72;5.00;;;18.70;99.90;;;;;;5017805;28;20484;-60
2022/08/12 01:39:26;;;;;;;7.15;5.00;;;18.70;99.90;;;;;;4997549;28;20045;-60
2022/08/12 01:41:53;;;;;;;7.70;5.93;;;18.70;99.90;;;;;;5021310;28;20049;-60
2022/08/12 01:44:25;;;;;;;8.35;6.00;;;18.60;99.90;;;;;;5021281;28;20041;-61
2022/08/12 01:47:07;;;;;;;7.35;5.80;;;18.60;99.90;;;;;;5020075;28;20041;-60
2022/08/12 01:49:39;;;;;;;9.02;6.10;;;18.60;99.90;;;;;;5019008;28;20113;-59
2022/08/12 01:52:07;;;;;;;8.45;5.78;;;18.60;99.90;;;;;;5019629;28;20076;-60
2022/08/12 01:54:40;;;;;;;8.63;5.63;;;18.50;99.90;;;;;;5020965;28;20045;-58
2022/08/12 01:57:12;;;;;;;7.78;5.78;;;18.50;99.90;;;;;;5022124;28;20052;-59
2022/08/12 01:59:46;;;;;;;7.07;6.17;;;18.50;99.90;;;;;;5018687;28;20041;-59
2022/08/12 02:02:46;;;;;;;8.88;5.72;;;18.50;99.90;;;;;;5018993;28;20547;-60
2022/08/12 02:11:17;;;;;;;11.85;6.53;;;18.40;99.90;;;;;;5035886;28;19932;-60
2022/08/12 02:14:05;;;;;;;10.35;6.03;;;18.40;99.90;;;;;;5021841;28;20064;-60
2022/08/12 02:16:48;;;;;;;13.32;6.03;;;18.40;99.90;;;;;;5020117;28;20136;-61
2022/08/12 02:19:33;;;;;;;;;;;18.40;99.90;;;;;;5020956;28;20041;-61
2022/08/12 02:22:23;;;;;;;7.63;5.95;;;18.30;99.90;;;;;;5019660;28;20430;-60
2022/08/12 02:24:53;;;;;;;8.13;6.63;;;18.30;99.90;;;;;;5020819;28;20546;-60
2022/08/12 02:27:20;;;;;;;8.60;5.93;;;18.30;99.90;;;;;;5025858;28;20056;-60
2022/08/12 02:29:47;;;;;;;7.55;6.40;;;18.30;99.90;;;;;;5023662;28;20053;-61
2022/08/12 02:32:13;;;;;;;8.55;6.28;;;18.30;99.90;;;;;;5006494;28;20050;-60
2022/08/12 02:34:43;;;;;;;8.70;6.60;;;18.20;99.90;;;;;;5024081;28;20056;-60
2022/08/12 02:37:14;;;;;;;10.13;6.63;;;18.20;99.90;;;;;;5023692;28;20103;-59
2022/08/12 02:39:46;;;;;;;7.40;6.10;;;18.20;99.90;;;;;;5023714;28;20046;-60
2022/08/12 02:42:14;;;;;;;11.38;7.15;;;18.20;99.90;;;;;;5025243;28;20508;-60
2022/08/12 02:44:47;;;;;;;9.93;5.95;;;18.20;99.90;;;;;;5024626;28;20046;-60
2022/08/12 02:47:16;;;;;;;7.93;6.07;;;18.20;99.90;;;;;;5020698;28;20042;-60
2022/08/12 02:49:51;;;;;;;9.00;6.40;;;18.10;99.90;;;;;;5021575;28;20115;-61
2022/08/12 02:52:19;;;;;;;11.88;6.70;;;18.10;99.90;;;;;;5023945;28;20395;-60
2022/08/12 02:54:50;;;;;;;9.05;6.57;;;18.10;99.90;;;;;;5023371;28;20033;-61
2022/08/12 02:57:18;;;;;;;13.23;7.50;;;18.10;99.90;;;;;;5023965;28;20484;-60
2022/08/12 02:59:46;;;;;;;8.35;6.97;;;18.10;99.90;;;;;;5024552;28;20073;-60
2022/08/12 03:02:14;;;;;;;8.40;6.65;;;18.00;99.90;;;;;;5021692;28;20504;-60
2022/08/12 03:04:52;;;;;;;9.80;6.35;;;18.00;99.90;;;;;;5023357;28;20622;-60
2022/08/12 03:07:34;;;;;;;11.48;6.25;;;18.00;99.90;;;;;;5023387;28;20553;-60
2022/08/12 03:10:08;;;;;;;12.20;6.45;;;18.00;99.90;;;;;;5022856;28;20087;-60
2022/08/12 03:12:45;;;;;;;9.57;7.22;;;18.00;99.90;;;;;;5024615;28;20037;-60
2022/08/12 03:15:13;;;;;;;8.63;6.82;;;17.90;99.90;;;;;;5023777;28;20041;-60
2022/08/12 03:18:06;;;;;;;11.52;7.47;;;17.90;99.90;;;;;;5023702;28;20045;-60
2022/08/12 03:20:41;;;;;;;8.55;6.40;;;17.90;99.90;;;;;;5021881;28;20417;-60
2022/08/12 03:23:13;;;;;;;6.85;5.95;;;17.80;99.90;;;;;;5022642;28;20077;-60
2022/08/12 03:25:40;;;;;;;7.78;6.30;;;17.80;99.90;;;;;;5022606;28;20128;-60
2022/08/12 03:28:12;;;;;;;8.60;6.57;;;17.80;99.90;;;;;;5038835;28;20041;-60
2022/08/12 03:30:42;;;;;;;8.90;6.50;;;17.80;99.90;;;;;;5023757;28;20046;-60
2022/08/12 03:33:11;;;;;;;9.75;6.82;;;17.80;99.90;;;;;;5023014;28;20490;-60
2022/08/12 03:35:41;;;;;;;6.70;6.00;;;17.80;99.90;;;;;;5023653;28;20037;-60
2022/08/12 03:38:10;;;;;;;10.38;7.60;;;17.80;99.90;;;;;;5022789;28;20507;-60
2022/08/12 04:00:36;;;;;;;9.90;6.97;;;17.60;99.90;;;;;;5023944;28;20042;-60
2022/08/12 04:03:02;;;;;;;9.05;6.28;;;17.60;99.90;;;;;;5022275;28;20049;-60
2022/08/12 04:05:29;;;;;;;9.32;7.43;;;17.50;99.90;;;;;;5019878;28;20049;-60
2022/08/12 04:07:56;;;;;;;11.50;7.75;;;17.50;99.90;;;;;;5022210;28;20045;-60
2022/08/12 04:13:13;;;;;;;8.93;7.00;;;17.50;99.90;;;;;;5019882;28;20053;-60
2022/08/12 04:13:17;;;;;;;7.80;6.68;;;17.50;99.90;;;;;;5021552;28;20128;-60
2022/08/12 04:15:44;;;;;;;7.15;6.45;;;17.40;99.90;;;;;;5020418;28;20049;-60
2022/08/12 04:18:17;;;;;;;9.63;7.45;;;17.40;99.90;;;;;;5022314;28;20049;-60
2022/08/12 04:20:47;;;;;;;11.68;7.18;;;17.40;99.90;;;;;;5022554;28;20480;-60
2022/08/12 04:23:16;;;;;;;10.25;7.20;;;17.40;99.90;;;;;;5021083;28;20132;-60
2022/08/12 04:25:43;;;;;;;9.63;6.50;;;17.30;99.90;;;;;;5020611;28;20121;-60
2022/08/12 04:28:11;;;;;;;8.38;6.70;;;17.30;99.90;;;;;;5021630;28;20091;-60
2022/08/12 04:30:38;;;;;;;10.77;7.50;;;17.20;99.90;;;;;;5022921;28;20056;-60
2022/08/12 04:33:08;;;;;;;8.15;7.20;;;17.20;99.90;;;;;;5021957;28;20126;-59
2022/08/12 04:35:34;;;;;;;9.13;6.97;;;17.20;99.90;;;;;;5021223;28;20109;-60
2022/08/12 04:38:00;;;;;;;8.20;6.68;;;17.20;99.90;;;;;;5022709;28;20045;-60
2022/08/12 04:40:29;;;;;;;8.73;6.68;;;17.20;99.90;;;;;;5019931;28;20037;-60
2022/08/12 04:42:55;;;;;;;11.23;7.10;;;17.20;99.90;;;;;;5022018;28;20077;-59
2022/08/12 04:45:21;;;;;;;10.00;6.70;;;17.20;99.90;;;;;;5037488;28;20071;-60
2022/08/12 04:47:47;;;;;;;8.70;6.70;;;17.20;99.90;;;;;;5020498;28;20037;-60
2022/08/12 04:50:17;;;;;;;8.73;7.00;;;17.20;99.90;;;;;;5018649;28;20060;-59
2022/08/12 04:52:43;;;;;;;9.15;6.78;;;17.20;99.90;;;;;;5021136;28;20395;-60
2022/08/12 04:55:11;;;;;;;9.02;6.90;;;17.20;99.90;;;;;;5020456;28;20462;-60
2022/08/12 04:57:37;;;;;;;8.75;7.65;;;17.20;99.90;;;;;;5021068;28;20129;-60
2022/08/12 05:00:12;;;;;;;10.40;7.65;;;17.20;99.90;;;;;;5021908;28;20084;-60
2022/08/12 05:02:38;;;;;;;9.77;6.90;;;17.30;99.90;;;;;;5020186;28;20516;-60
2022/08/12 05:05:07;;;;;;;9.70;7.15;;;17.30;99.90;;;;;;5018566;28;20050;-60
2022/08/12 05:07:34;;;;;;;9.73;7.18;;;17.30;99.90;;;;;;5020711;28;20093;-60
2022/08/12 05:10:01;;;;;;;10.05;7.15;;;17.30;99.90;;;;;;5020347;28;20049;-60
2022/08/12 05:12:36;;;;;;;9.65;6.72;;;17.30;99.90;;;;;;5021800;28;20128;-60
2022/08/12 05:15:04;;;;;;;10.60;7.03;;;17.40;99.90;;;;;;5021201;28;20048;-60
2022/08/12 05:17:30;;;;;;;10.23;6.93;;;17.40;99.90;;;;;;5021000;28;20045;-60
2022/08/12 05:19:56;;;;;;;13.98;7.22;;;17.40;99.90;;;;;;5034827;28;20054;-60
2022/08/12 05:22:21;;;;;;;7.78;6.97;;;17.40;99.90;;;;;;5020502;28;20053;-60
2022/08/12 05:24:47;;;;;;;11.95;7.25;;;17.40;99.90;;;;;;5021263;28;20165;-59
2022/08/12 05:27:13;;;;;;;8.63;6.97;;;17.50;99.90;;;;;;5022298;28;20041;-60
2022/08/12 05:29:40;;;;;;;9.73;6.70;;;17.50;99.90;;;;;;5019464;28;20057;-60
2022/08/12 05:32:10;;;;;;;6.70;6.03;;;17.50;99.90;;;;;;5021403;28;20037;-60
2022/08/12 05:34:35;;;;;;;12.73;7.03;;;17.50;99.90;;;;;;5020752;28;20110;-59
2022/08/12 05:37:02;;;;;;;7.78;6.50;;;17.60;99.90;;;;;;5022522;28;20034;-60
2022/08/12 05:39:28;;;;;;;12.48;6.95;;;17.60;99.90;;;;;;5022112;28;20053;-60
2022/08/12 05:41:53;;;;;;;8.30;6.45;;;17.60;99.90;;;;;;5021935;28;20376;-59
2022/08/12 05:44:19;;;;;;;8.85;6.07;;;17.70;99.90;;;;;;5021171;28;20041;-60
2022/08/12 05:46:45;;;;;;;8.95;6.20;;;17.70;99.90;;;;;;5019353;28;20102;-60
2022/08/12 05:49:11;;;;;;;9.00;6.13;;;17.70;99.90;;;;;;5019690;28;20057;-60
2022/08/12 05:51:38;;;;;;;10.63;6.45;;;17.80;99.90;;;;;;5019945;28;20037;-60
2022/08/12 05:54:04;;;;;;;7.72;5.88;;;17.80;99.90;;;;;;4987127;28;20196;-60
2022/08/12 05:56:33;;;;;;;6.95;5.60;;;17.90;99.90;;;;;;5018952;28;20459;-60
2022/08/12 05:59:01;;;;;;;10.32;6.20;;;18.00;99.90;;;;;;5021111;28;20037;-60
2022/08/12 06:01:28;;;;;;;9.65;5.50;;;18.10;99.90;;;;;;5020273;28;20100;-59
2022/08/12 06:03:55;;;;;;;7.40;5.60;;;18.10;99.90;;;;;;5017856;28;20416;-60
2022/08/12 06:06:22;;;;;;;6.72;5.63;;;18.20;99.90;;;;;;5035808;28;20128;-59
2022/08/12 06:08:52;;;;;;;6.47;4.63;;;18.20;99.90;;;;;;5018577;28;20107;-60
2022/08/12 06:11:20;;;;;;;9.48;5.10;;;18.30;99.90;;;;;;5021402;28;20044;-60
2022/08/12 06:13:45;;;;;;;7.10;5.15;;;18.40;99.90;;;;;;5020696;28;20512;-60
2022/08/12 06:16:14;;;;;;;7.72;4.90;;;18.50;99.90;;;;;;4987588;28;20346;-59
2022/08/12 06:18:42;;;;;;;9.27;4.78;;;18.60;99.90;;;;;;5021197;28;20471;-60
2022/08/12 06:21:12;;;;;;;8.52;4.32;;;18.70;99.90;;;;;;5019401;28;20096;-60
2022/08/12 06:23:39;;;;;;;7.20;4.50;;;18.70;99.90;;;;;;5017638;28;20053;-61
2022/08/12 06:26:10;;;;;;;8.60;4.15;;;18.90;99.90;;;;;;5021287;28;20100;-60
2022/08/12 06:28:40;;;;;;;6.40;3.92;;;19.00;99.90;;;;;;5020381;28;20049;-60
2022/08/12 06:31:06;;;;;;;5.35;3.60;;;19.00;99.90;;;;;;5019416;28;20049;-60
2022/08/12 06:33:33;;;;;;;9.50;3.40;;;19.20;99.90;;;;;;5020701;28;20041;-60
2022/08/12 06:36:00;;;;;;;7.43;3.53;;;19.30;99.90;;;;;;5019555;28;20037;-60
2022/08/12 06:38:29;;;;;;;6.45;3.42;;;19.40;99.90;;;;;;5017346;28;20506;-59
2022/08/12 06:43:43;;;;;;;5.68;3.30;;;19.60;99.90;;;;;;5025046;28;20480;-60
2022/08/12 06:46:10;;;;;;;3.92;3.03;;;19.70;99.90;;;;;;5021307;28;20073;-60
2022/08/12 06:48:36;;;;;;;7.35;3.03;;;19.80;99.90;;;;;;5019869;28;20411;-60
2022/08/12 06:51:03;;;;;;;4.15;3.65;;;19.90;99.90;;;;;;5019720;28;20053;-60
2022/08/12 06:53:32;;;;;;;16.27;3.67;;;20.00;99.90;;;;;;5019249;28;20056;-60
2022/08/12 06:55:59;;;;;;;9.18;3.15;;;20.20;99.90;;;;;;5018771;28;20057;-60
2022/08/12 06:58:29;;;;;;;12.63;3.67;;;20.20;99.90;;;;;;5020910;28;20094;-60
2022/08/12 07:00:57;;;;;;;5.80;2.80;;;20.40;99.90;;;;;;5019618;28;20085;-60
2022/08/12 07:03:27;;;;;;;6.18;3.10;;;20.50;99.90;;;;;;5018507;28;20049;-61
2022/08/12 07:05:56;;;;;;;7.03;2.85;;;20.60;99.90;;;;;;5019870;28;20053;-60
2022/08/12 07:08:27;;;;;;;8.07;3.90;;;20.70;99.90;;;;;;5020829;28;20051;-60
2022/08/12 07:10:58;;;;;;;7.18;2.67;;;20.90;99.90;;;;;;5018791;28;20117;-60
2022/08/12 07:13:37;;;;;;;7.85;2.90;;;21.00;99.90;;;;;;5020452;28;20045;-61
2022/08/12 07:16:04;;;;;;;4.93;2.90;;;21.20;99.90;;;;;;5024403;28;20038;-60
2022/08/12 07:18:33;;;;;;;7.50;2.97;;;21.30;99.40;;;;;;5022881;28;20668;-60
2022/08/12 07:21:02;;;;;;;9.68;2.70;;;21.40;99.10;;;;;;5022355;28;20059;-60
2022/08/12 07:23:33;;;;;;;6.07;2.50;;;21.60;98.80;;;;;;5023112;28;20049;-60
2022/08/12 07:26:04;;;;;;;5.13;2.83;;;21.70;98.50;;;;;;5021643;28;20051;-62
2022/08/12 07:28:33;;;;;;;6.18;2.30;;;21.80;98.20;;;;;;5020436;28;20885;-63
2022/08/12 07:31:03;;;;;;;7.20;2.75;;;21.90;97.80;;;;;;5022099;28;20100;-60
2022/08/12 07:33:30;;;;;;;3.75;2.65;;;22.10;97.40;;;;;;5022135;28;20271;-60
2022/08/12 07:35:58;;;;;;;3.55;2.50;;;22.20;96.90;;;;;;5022413;28;20041;-60
2022/08/12 07:38:29;;;;;;;4.35;2.70;;;22.40;96.50;;;;;;5021229;28;20079;-60
2022/08/12 07:41:10;;;;;;;6.78;2.70;;;22.50;96.10;;;;;;5021973;28;20046;-60
2022/08/12 07:43:41;;;;;;;3.75;2.70;;;22.70;95.50;;;;;;5022972;28;20042;-60
2022/08/12 07:46:10;;;;;;;5.15;2.17;;;22.80;94.90;;;;;;5023074;28;20514;-60
2022/08/12 07:48:54;;;;;;;7.50;2.85;;;23.00;94.40;;;;;;5021186;28;20166;-60
2022/08/12 07:51:21;;;;;;;9.10;2.30;;;23.10;93.80;;;;;;5022917;28;20180;-60
2022/08/12 07:53:48;;;;;;;9.57;2.80;;;23.30;93.30;;;;;;5021640;28;20045;-60
2022/08/12 07:56:15;;;;;;;5.00;2.38;;;23.40;92.90;;;;;;5022625;28;20077;-61
2022/08/12 07:58:41;;;;;;;7.45;2.50;;;23.50;92.60;;;;;;5023859;28;20041;-61
2022/08/12 08:01:10;;;;;;;7.57;2.90;;;23.60;92.40;;;;;;5022800;28;20464;-61
2022/08/12 08:06:24;;;;;;;6.32;2.40;;;24.00;91.50;;;;;;5022179;28;20046;-61
2022/08/12 08:08:49;;;;;;;4.38;2.33;;;24.10;91.40;;;;;;5023059;28;20284;-60
2022/08/12 08:14:02;;;;;;;3.97;2.33;;;24.30;91.40;;;;;;5021898;28;20049;-60
2022/08/12 08:16:28;;;;;;;6.47;2.58;;;24.50;90.90;;;;;;5021638;28;20060;-60
2022/08/12 08:18:54;;;;;;;5.45;2.40;;;24.60;90.30;;;;;;5022584;28;20112;-60
2022/08/12 08:21:20;;;;;;;4.68;2.20;;;24.80;89.40;;;;;;5035560;28;20466;-60
2022/08/12 08:26:31;;;;;;;5.90;1.92;;;25.10;86.80;;;;;;5022283;28;20131;-61
2022/08/12 08:28:58;;;;;;;3.65;2.15;;;25.20;85.70;;;;;;5022094;28;20116;-61
2022/08/12 08:31:24;;;;;;;17.00;2.28;;;25.30;85.20;;;;;;5023887;28;20045;-60
2022/08/12 08:33:50;;;;;;;7.85;2.45;;;25.50;84.90;;;;;;5021480;28;20052;-60
2022/08/12 08:36:16;;;;;;;5.53;2.38;;;25.60;84.20;;;;;;5020958;28;20045;-61
2022/08/12 08:38:44;;;;;;;2.42;2.00;;;25.80;82.90;;;;;;5020028;28;20049;-61
2022/08/12 08:43:59;;;;;;;3.17;2.25;;;26.00;79.80;;;;;;5020017;28;20037;-61
2022/08/12 08:46:26;;;;;;;5.78;2.20;;;26.10;81.30;;;;;;5022393;28;20067;-60
2022/08/12 08:48:53;;;;;;;3.90;2.40;;;26.30;81.60;;;;;;5020574;28;20045;-60
2022/08/12 08:51:19;;;;;;;4.47;2.30;;;26.40;80.60;;;;;;5020647;28;20045;-61
2022/08/12 08:53:45;;;;;;;4.45;2.20;;;26.50;81.10;;;;;;5020563;28;20501;-61
2022/08/12 08:56:11;;;;;;;8.73;2.60;;;26.70;79.40;;;;;;5019384;28;20049;-61
2022/08/12 08:58:37;;;;;;;6.43;2.20;;;26.70;78.60;;;;;;5020975;28;20044;-61
2022/08/12 09:01:04;;;;;;;8.32;2.97;;;26.80;77.90;;;;;;5021000;28;20045;-61
2022/08/12 09:03:32;;;;;;;5.13;2.42;;;27.00;77.50;;;;;;5019472;28;20742;-61
2022/08/12 09:06:00;;;;;;;7.13;2.60;;;27.10;75.90;;;;;;5022319;28;20564;-61
2022/08/12 09:08:26;;;;;;;6.03;2.53;;;27.20;74.70;;;;;;5019868;28;20049;-61
2022/08/12 09:13:26;;;;;;;7.68;2.17;;;27.30;73.80;;;;;;5020300;28;20513;-61
2022/08/12 09:13:37;;;;;;;5.72;2.00;;;27.40;72.40;;;;;;5007107;28;20060;-62
2022/08/12 09:16:05;;;;;;;8.35;2.38;;;27.50;71.80;;;;;;5023237;28;20049;-61
2022/08/12 09:18:33;;;;;;;5.13;2.08;;;27.60;70.60;;;;;;5021328;28;20049;-61
2022/08/12 09:20:59;;;;;;;10.68;2.08;;;27.80;70.00;;;;;;5019895;28;20490;-62
2022/08/12 09:23:26;;;;;;;4.82;2.25;;;27.80;69.30;;;;;;5020448;28;20056;-62
2022/08/12 09:25:52;;;;;;;4.68;2.30;;;28.00;69.50;;;;;;5020389;28;20652;-62
2022/08/12 09:28:23;;;;;;;10.57;2.38;;;28.10;69.30;;;;;;5021305;28;20084;-61
2022/08/12 09:30:50;;;;;;;8.30;2.53;;;28.20;68.30;;;;;;5035953;28;20081;-61
2022/08/12 09:33:15;;;;;;;10.13;2.47;;;28.30;68.00;;;;;;5020932;28;20509;-62
2022/08/12 09:35:43;;;;;;;5.90;2.33;;;28.40;68.20;;;;;;5018877;28;20089;-61
2022/08/12 09:38:14;;;;;;;4.05;2.10;;;28.50;67.90;;;;;;5019446;28;20041;-61
2022/08/12 09:40:40;;;;;;;5.53;2.30;;;28.60;67.60;;;;;;5021695;28;20045;-61
2022/08/12 09:45:50;;;;;;;3.92;2.20;;;28.80;63.90;;;;;;5018008;28;20575;-61
2022/08/12 09:48:16;;;;;;;5.80;2.58;;;29.00;62.70;;;;;;5035293;28;20112;-62
2022/08/12 09:50:49;;;;;;;4.38;2.00;;;29.10;62.30;;;;;;5019686;28;20049;-62
2022/08/12 09:53:23;;;;;;;10.13;2.00;;;29.20;60.70;;;;;;5021407;28;20180;-61
2022/08/12 09:55:51;;;;;;;6.30;1.75;;;29.20;59.50;;;;;;5020136;28;20049;-62
2022/08/12 09:58:25;;;;;;;9.70;2.00;;;29.30;58.70;;;;;;5020010;28;20723;-62
2022/08/12 10:00:53;;;;;;;9.40;2.10;;;29.40;58.20;;;;;;5020821;28;20049;-61
2022/08/12 10:03:20;;;;;;;3.60;2.03;;;29.50;58.20;;;;;;5018161;28;20037;-62
2022/08/12 10:05:48;;;;;;;6.18;2.13;;;29.60;57.90;;;;;;5019637;28;20106;-61
2022/08/12 10:08:16;;;;;;;6.22;1.90;;;29.70;57.70;;;;;;5020312;28;20048;-62
2022/08/12 10:13:42;;;;;;;2.60;1.77;;;29.90;56.80;;;;;;5021589;28;20503;-61
2022/08/12 10:16:10;;;;;;;3.88;1.80;;;30.00;57.00;;;;;;5020838;28;20103;-62
2022/08/12 10:18:38;;;;;;;4.47;1.90;;;30.10;55.90;;;;;;5019388;28;20427;-61
2022/08/12 10:21:08;;;;;;;4.97;2.10;;;30.20;55.40;;;;;;5019642;28;20049;-61
2022/08/12 10:23:36;;;;;;;5.97;1.90;;;30.40;55.40;;;;;;5017221;28;20471;-62
2022/08/12 10:31:31;;;;;;;4.95;2.08;;;30.90;54.40;;;;;;5020867;28;20399;-62
2022/08/12 10:33:57;;;;;;;9.05;1.90;;;31.00;54.10;;;;;;5020533;28;20041;-62
2022/08/12 10:36:23;;;;;;;5.35;2.03;;;31.10;54.00;;;;;;5016551;28;20052;-62
2022/08/12 10:38:50;;;;;;;4.30;2.05;;;31.30;54.30;;;;;;5034303;28;20095;-61
2022/08/12 10:44:04;;;;;;;6.72;2.50;;;31.60;53.10;;;;;;5020543;28;20152;-61
2022/08/12 10:46:31;;;;;;;4.95;2.20;;;31.70;52.80;;;;;;5020362;28;20399;-62
2022/08/12 10:48:58;;;;;;;6.80;1.85;;;31.80;52.70;;;;;;5022697;28;20045;-61
2022/08/12 10:51:24;;;;;;;4.93;1.83;;;31.90;52.50;;;;;;5022539;28;20050;-62
2022/08/12 10:53:55;;;;;;;4.43;2.20;;;31.90;53.10;;;;;;5023533;28;20096;-61
2022/08/12 10:56:21;;;;;;;3.70;2.03;;;32.00;52.90;;;;;;5023648;28;20416;-61
2022/08/12 10:58:47;;;;;;;9.43;2.33;;;32.10;51.80;;;;;;5024054;28;20045;-62
2022/08/12 11:01:14;;;;;;;4.70;1.92;;;32.20;51.30;;;;;;5024053;28;20045;-62
2022/08/12 11:03:40;;;;;;;3.83;2.03;;;32.20;50.60;;;;;;5007146;28;20131;-61
2022/08/12 11:06:08;;;;;;;5.60;2.05;;;32.10;50.40;;;;;;5023111;28;20079;-61
2022/08/12 11:08:36;;;;;;;5.13;1.80;;;32.20;50.00;;;;;;5022341;28;20164;-61
2022/08/12 11:11:04;;;;;;;4.93;1.75;;;32.20;49.90;;;;;;5022549;28;20049;-61
2022/08/12 11:13:31;;;;;;;5.75;1.70;;;32.20;49.80;;;;;;5023381;28;20474;-61
2022/08/12 11:15:57;;;;;;;9.05;2.13;;;32.30;49.20;;;;;;5024000;28;20050;-61
2022/08/12 11:18:23;;;;;;;9.52;1.98;;;32.40;48.70;;;;;;5006601;28;20045;-62
2022/08/12 11:20:49;;;;;;;3.53;1.80;;;32.50;49.00;;;;;;5021025;28;20380;-62
2022/08/12 11:23:16;;;;;;;7.28;1.80;;;32.60;48.90;;;;;;5022180;28;20083;-62
2022/08/12 11:25:43;;;;;;;5.53;2.25;;;32.70;48.30;;;;;;5023339;28;20462;-62
2022/08/12 11:28:09;;;;;;;4.60;1.98;;;32.90;48.60;;;;;;5021909;28;20044;-61
2022/08/12 11:30:35;;;;;;;2.72;1.60;;;33.00;48.40;;;;;;5022091;28;20038;-62
2022/08/12 11:33:01;;;;;;;5.47;2.33;;;33.10;47.60;;;;;;5023679;28;20049;-61
2022/08/12 11:35:27;;;;;;;6.45;2.10;;;33.10;46.70;;;;;;5022077;28;20045;-62
2022/08/12 11:37:53;;;;;;;6.95;1.77;;;33.10;46.80;;;;;;5024367;28;20037;-62
2022/08/12 11:40:19;;;;;;;3.50;1.90;;;33.20;46.80;;;;;;5023419;28;20045;-62
2022/08/12 11:42:44;;;;;;;3.67;2.00;;;33.30;46.40;;;;;;5036940;28;20057;-61
2022/08/12 11:45:10;;;;;;;4.78;2.15;;;33.40;45.90;;;;;;5020495;28;20381;-62
2022/08/12 11:47:37;;;;;;;9.40;2.38;;;33.50;46.00;;;;;;5023214;28;20042;-62
2022/08/12 11:50:04;;;;;;;3.05;1.60;;;33.50;45.50;;;;;;5022086;28;20096;-62
2022/08/12 11:52:30;;;;;;;3.47;1.65;;;33.70;46.10;;;;;;5023845;28;20042;-63
2022/08/12 11:54:55;;;;;;;3.05;1.65;;;33.80;45.00;;;;;;5022794;28;20053;-62
2022/08/12 11:57:21;;;;;;;3.75;1.60;;;33.90;44.80;;;;;;5022963;28;20041;-62
2022/08/12 11:59:47;;;;;;;2.88;1.25;;;33.90;44.30;;;;;;5020120;28;20479;-62
2022/08/12 12:02:13;;;;;;;2.35;1.60;;;34.00;44.80;;;;;;5020992;28;20562;-62
2022/08/12 12:04:39;;;;;;;4.68;1.70;;;34.10;44.60;;;;;;5020740;28;20060;-62
2022/08/12 12:07:05;;;;;;;2.58;1.77;;;34.20;45.20;;;;;;5023858;28;20433;-63
2022/08/12 12:09:31;;;;;;;11.70;1.63;;;34.20;46.30;;;;;;5022455;28;20103;-63
2022/08/12 12:11:56;;;;;;;6.10;1.98;;;34.30;45.80;;;;;;5023296;28;20029;-62
2022/08/12 12:14:22;;;;;;;6.05;1.88;;;34.40;44.90;;;;;;5022869;28;20056;-62
2022/08/12 12:16:48;;;;;;;5.57;1.50;;;34.40;44.80;;;;;;5023381;28;20076;-62
2022/08/12 12:19:16;;;;;;;4.38;1.48;;;34.40;44.70;;;;;;5021311;28;20037;-63
2022/08/12 12:21:42;;;;;;;4.55;1.42;;;34.50;44.40;;;;;;5020920;28;20058;-62
2022/08/12 12:24:08;;;;;;;4.57;1.55;;;34.50;44.40;;;;;;5019090;28;20053;-62
2022/08/12 12:26:33;;;;;;;2.55;1.50;;;34.70;44.40;;;;;;5022138;28;20042;-63
2022/08/12 12:28:59;;;;;;;10.48;1.77;;;34.90;45.10;;;;;;5022465;28;20084;-62
2022/08/12 12:31:25;;;;;;;2.28;1.45;;;35.00;44.60;;;;;;5023634;28;20546;-62
2022/08/12 12:33:51;;;;;;;5.53;1.67;;;34.90;43.90;;;;;;5021949;28;20476;-63
2022/08/12 12:36:17;;;;;;;6.32;1.48;;;34.90;43.70;;;;;;5021484;28;20096;-62
2022/08/12 12:38:42;;;;;;;3.80;1.50;;;35.00;45.00;;;;;;5021946;28;20069;-62
2022/08/12 12:41:08;;;;;;;2.05;1.52;;;35.00;43.50;;;;;;5021746;28;20037;-63
2022/08/12 12:43:34;;;;;;;3.70;1.40;;;35.10;43.70;;;;;;5022455;28;20046;-62
2022/08/12 12:46:00;;;;;;;9.00;1.50;;;35.20;43.20;;;;;;5020628;28;20563;-62
2022/08/12 12:48:26;;;;;;;3.85;1.30;;;35.30;44.00;;;;;;5021692;28;20049;-62
2022/08/12 12:53:41;;;;;;;1.63;1.40;;;35.40;43.20;;;;;;5020105;28;20519;-63
2022/08/12 12:56:14;;;;;;;6.05;1.48;;;35.40;43.00;;;;;;5038177;28;20215;-62
2022/08/12 12:58:41;;;;;;;2.30;1.48;;;35.50;42.30;;;;;;5022882;28;20041;-63
2022/08/12 13:01:08;;;;;;;3.17;1.40;;;35.40;42.80;;;;;;5019516;28;20050;-63
2022/08/12 13:03:34;;;;;;;12.77;2.20;;;35.50;42.40;;;;;;5021416;28;20049;-63
2022/08/12 13:06:03;;;;;;;2.00;1.30;;;35.60;42.40;;;;;;5020483;28;20122;-63
2022/08/12 13:08:31;;;;;;;4.57;1.50;;;35.50;42.30;;;;;;5020218;28;20041;-63
2022/08/12 13:11:00;;;;;;;4.15;1.40;;;35.50;42.00;;;;;;5021870;28;20116;-62
2022/08/12 13:13:28;;;;;;;4.82;1.40;;;35.40;41.70;;;;;;5021911;28;20057;-62
2022/08/12 13:15:55;;;;;;;5.28;1.80;;;35.40;42.10;;;;;;5020642;28;20047;-63
2022/08/12 13:18:24;;;;;;;6.35;1.60;;;35.50;42.30;;;;;;5019407;28;20045;-63
2022/08/12 13:20:50;;;;;;;3.75;1.40;;;35.50;42.20;;;;;;5020070;28;20041;-63
2022/08/12 13:23:18;;;;;;;5.70;1.50;;;35.60;42.10;;;;;;5022416;28;20124;-62
2022/08/12 13:25:48;;;;;;;6.35;1.58;;;35.70;42.30;;;;;;5021018;28;20415;-63
2022/08/12 13:28:22;;;;;;;3.25;1.40;;;35.80;42.30;;;;;;5020847;28;20049;-63
2022/08/12 13:30:49;;;;;;;1.63;1.20;;;35.90;42.20;;;;;;5018786;28;20045;-62
2022/08/12 13:33:15;;;;;;;3.58;1.27;;;36.00;42.30;;;;;;5018304;28;20434;-63
2022/08/12 13:35:41;;;;;;;4.00;1.50;;;36.00;42.00;;;;;;5035258;28;20045;-63
2022/08/12 13:38:09;;;;;;;6.55;1.40;;;35.90;41.60;;;;;;5020944;28;20057;-63
2022/08/12 13:40:38;;;;;;;6.00;1.63;;;35.90;41.70;;;;;;5022151;28;20158;-62
2022/08/12 13:43:05;;;;;;;6.43;1.58;;;35.90;41.40;;;;;;5034875;28;20041;-63
2022/08/12 13:45:34;;;;;;;3.00;1.42;;;36.00;41.80;;;;;;5019180;28;20049;-63
2022/08/12 13:48:02;;;;;;;2.08;1.40;;;36.10;42.00;;;;;;5020411;28;20148;-63
2022/08/12 13:50:35;;;;;;;3.67;1.25;;;36.30;41.60;;;;;;5021158;28;20041;-63
2022/08/12 13:53:12;;;;;;;5.40;1.60;;;36.30;41.30;;;;;;5022174;28;20472;-63
2022/08/12 13:55:42;;;;;;;4.78;1.42;;;36.30;41.90;;;;;;5021088;28;20083;-63
2022/08/12 13:58:10;;;;;;;6.13;1.60;;;36.30;42.20;;;;;;5002715;28;20117;-63
2022/08/12 14:00:37;;;;;;;6.35;1.90;;;36.40;42.50;;;;;;5018276;28;20459;-63
2022/08/12 14:03:03;;;;;;;5.55;1.65;;;36.30;43.00;;;;;;5020162;28;20607;-63
2022/08/12 14:05:29;;;;;;;7.15;1.58;;;36.30;42.90;;;;;;5019839;28;20087;-63
2022/08/12 14:08:05;;;;;;;6.28;1.70;;;36.20;43.80;;;;;;5020697;28;20052;-63
2022/08/12 14:10:36;;;;;;;5.85;1.58;;;36.10;44.00;;;;;;5019755;28;20498;-63
2022/08/12 14:13:17;;;;;;;5.13;1.80;;;36.20;44.20;;;;;;5020132;28;20048;-63
2022/08/12 14:15:48;;;;;;;4.60;1.92;;;36.20;44.10;;;;;;5019302;28;20085;-63
2022/08/12 14:18:18;;;;;;;6.47;1.58;;;36.20;44.20;;;;;;5019547;28;20073;-63
2022/08/12 14:21:00;;;;;;;6.05;1.55;;;36.30;43.90;;;;;;5019764;28;20484;-63
2022/08/12 14:23:49;;;;;;;8.43;2.00;;;36.20;44.40;;;;;;5025012;28;20049;-63
2022/08/12 14:26:25;;;;;;;7.47;1.80;;;36.20;44.20;;;;;;5024995;28;20049;-63
2022/08/12 14:28:54;;;;;;;5.35;1.60;;;36.10;44.30;;;;;;5023547;28;20124;-62
2022/08/12 14:31:20;;;;;;;8.52;1.70;;;36.00;43.70;;;;;;5025058;28;20052;-62
2022/08/12 14:33:48;;;;;;;3.40;1.70;;;35.80;44.00;;;;;;5022497;28;20049;-63
2022/08/12 14:36:22;;;;;;;3.47;1.50;;;35.80;44.70;;;;;;5023258;28;20038;-62
2022/08/12 14:38:49;;;;;;;3.75;1.60;;;35.90;45.30;;;;;;5024036;28;20146;-63
2022/08/12 14:41:21;;;;;;;8.70;1.67;;;35.80;44.90;;;;;;5023849;28;20045;-62
2022/08/12 14:43:49;;;;;;;5.47;1.83;;;36.00;45.60;;;;;;5023729;28;20077;-62